createdAt,value
2024-03-16T00:01:56.256Z,76.58
2024-03-16T00:04:24.050Z,77.00
2024-03-16T00:06:51.867Z,77.19
2024-03-16T00:09:21.128Z,77.40
2024-03-16T00:11:49.143Z,77.03
2024-03-16T00:14:16.901Z,81.30
2024-03-16T00:16:44.661Z,73.48
2024-03-16T00:19:12.489Z,73.57
2024-03-16T00:21:40.353Z,72.40
2024-03-16T00:24:09.286Z,73.80
2024-03-16T00:26:37.072Z,74.52
2024-03-16T00:29:08.296Z,74.75
2024-03-16T00:31:36.209Z,74.97
2024-03-16T00:34:05.383Z,76.29
2024-03-16T00:36:33.411Z,75.71
2024-03-16T00:39:01.237Z,76.07
2024-03-16T00:41:28.967Z,76.34
2024-03-16T00:43:56.702Z,76.23
2024-03-16T00:46:24.446Z,76.89
2024-03-16T00:48:52.320Z,76.89
2024-03-16T00:51:20.221Z,76.92
2024-03-16T00:53:47.946Z,77.05
2024-03-16T00:56:15.742Z,77.13
2024-03-16T00:58:43.462Z,77.13
2024-03-16T01:01:12.017Z,76.04
2024-03-16T01:03:39.841Z,70.90
2024-03-16T01:06:07.603Z,71.68
2024-03-16T01:08:35.402Z,73.49
2024-03-16T01:11:03.827Z,74.90
2024-03-16T01:13:31.706Z,75.29
2024-03-16T01:15:59.513Z,75.09
2024-03-16T01:18:27.332Z,75.79
2024-03-16T01:20:55.300Z,76.36
2024-03-16T01:23:23.006Z,76.37
2024-03-16T01:25:50.831Z,76.62
2024-03-16T01:28:18.605Z,77.25
2024-03-16T01:30:46.330Z,77.71
2024-03-16T01:33:14.360Z,77.91
2024-03-16T01:35:42.085Z,77.25
2024-03-16T01:38:09.845Z,77.26
2024-03-16T01:40:37.607Z,77.77
2024-03-16T01:43:05.664Z,77.59
2024-03-16T01:45:33.558Z,77.98
2024-03-16T01:48:04.614Z,78.07
2024-03-16T01:50:32.367Z,77.92
2024-03-16T01:53:00.164Z,78.60
2024-03-16T01:55:27.877Z,78.55
2024-03-16T01:57:55.696Z,78.20
2024-03-16T02:00:23.679Z,79.43
2024-03-16T02:02:51.490Z,79.09
2024-03-16T02:05:19.459Z,79.58
2024-03-16T02:07:47.281Z,79.45
2024-03-16T02:10:15.043Z,78.84
2024-03-16T02:12:42.912Z,78.66
2024-03-16T02:15:11.058Z,79.04
2024-03-16T02:17:38.862Z,78.79
2024-03-16T02:20:16.414Z,78.63
2024-03-16T02:22:44.275Z,78.21
2024-03-16T02:25:12.449Z,78.66
2024-03-16T02:27:40.376Z,78.48
2024-03-16T02:30:11.022Z,78.40
2024-03-16T02:32:38.847Z,78.17
2024-03-16T02:35:09.104Z,77.99
2024-03-16T02:37:36.961Z,78.30
2024-03-16T02:40:06.686Z,77.94
2024-03-16T02:42:33.588Z,77.94
2024-03-16T02:45:01.317Z,78.25
2024-03-16T02:47:29.193Z,77.96
2024-03-16T02:49:57.046Z,77.52
2024-03-16T02:52:25.064Z,77.69
2024-03-16T02:54:52.764Z,77.96
2024-03-16T02:57:20.540Z,77.67
2024-03-16T02:59:48.314Z,77.90
2024-03-16T03:02:16.110Z,78.98
2024-03-16T03:04:43.869Z,78.64
2024-03-16T03:07:11.811Z,78.31
2024-03-16T03:09:39.583Z,78.24
2024-03-16T03:12:07.556Z,78.44
2024-03-16T03:14:35.365Z,78.44
2024-03-16T03:17:03.091Z,79.00
2024-03-16T03:19:30.912Z,78.72
2024-03-16T03:21:58.745Z,78.44
2024-03-16T03:24:26.490Z,78.11
2024-03-16T03:26:55.374Z,78.04
2024-03-16T03:29:23.897Z,78.43
2024-03-16T03:31:51.690Z,78.30
2024-03-16T03:34:19.517Z,79.14
2024-03-16T03:36:47.365Z,79.22
2024-03-16T03:39:16.792Z,79.17
2024-03-16T03:41:44.687Z,79.21
2024-03-16T03:44:22.585Z,79.25
2024-03-16T03:46:53.492Z,78.97
2024-03-16T03:49:33.797Z,79.06
2024-03-16T03:52:05.382Z,80.06
2024-03-16T03:54:34.306Z,79.21
2024-03-16T03:57:02.296Z,79.35
2024-03-16T03:59:30.128Z,79.35
2024-03-16T04:01:57.975Z,79.04
2024-03-16T04:04:25.759Z,79.34
2024-03-16T04:06:53.556Z,79.50
2024-03-16T04:09:21.290Z,79.43
2024-03-16T04:11:49.107Z,79.08
2024-03-16T04:14:16.944Z,79.43
2024-03-16T04:16:44.798Z,79.38
2024-03-16T04:19:12.768Z,79.16
2024-03-16T04:21:40.681Z,79.26
2024-03-16T04:24:08.516Z,79.39
2024-03-16T04:26:36.283Z,79.93
2024-03-16T04:29:04.029Z,79.78
2024-03-16T04:31:33.130Z,79.78
2024-03-16T04:34:01.036Z,79.57
2024-03-16T04:36:28.938Z,79.62
2024-03-16T04:38:56.829Z,79.65
2024-03-16T04:41:24.743Z,79.75
2024-03-16T04:43:52.737Z,79.68
2024-03-16T04:46:20.827Z,79.73
2024-03-16T04:48:48.580Z,79.64
2024-03-16T04:51:16.632Z,79.85
2024-03-16T04:53:44.501Z,80.09
2024-03-16T04:56:12.307Z,79.85
2024-03-16T04:58:40.087Z,80.10
2024-03-16T05:01:10.410Z,79.97
2024-03-16T05:03:38.308Z,79.88
2024-03-16T05:06:06.501Z,80.23
2024-03-16T05:08:34.334Z,80.89
2024-03-16T05:11:02.084Z,80.78
2024-03-16T05:13:32.012Z,80.72
2024-03-16T05:16:08.866Z,81.30
2024-03-16T05:18:37.001Z,81.54
2024-03-16T05:21:05.822Z,81.64
2024-03-16T05:23:33.647Z,81.09
2024-03-16T05:26:01.960Z,81.32
2024-03-16T05:28:29.790Z,81.47
2024-03-16T05:30:57.718Z,81.14
2024-03-16T05:33:25.435Z,81.15
2024-03-16T05:35:53.280Z,81.34
2024-03-16T05:38:21.240Z,81.47
2024-03-16T05:40:49.030Z,81.31
2024-03-16T05:43:16.914Z,81.56
2024-03-16T05:45:44.784Z,81.97
2024-03-16T05:48:12.585Z,82.01
2024-03-16T05:50:40.437Z,81.79
2024-03-16T05:53:08.160Z,82.02
2024-03-16T05:55:35.972Z,82.10
2024-03-16T05:58:03.816Z,81.80
2024-03-16T06:00:31.682Z,81.63
2024-03-16T06:02:59.420Z,81.53
2024-03-16T06:05:27.127Z,82.05
2024-03-16T06:07:54.852Z,81.60
2024-03-16T06:10:22.700Z,81.66
2024-03-16T06:12:51.143Z,82.25
2024-03-16T06:15:18.954Z,81.72
2024-03-16T06:17:47.371Z,81.78
2024-03-16T06:20:16.460Z,81.39
2024-03-16T06:22:45.822Z,80.61
2024-03-16T06:25:14.239Z,80.88
2024-03-16T06:27:50.460Z,80.51
2024-03-16T06:30:18.306Z,80.43
2024-03-16T06:33:06.782Z,80.54
2024-03-16T06:35:34.790Z,80.00
2024-03-16T06:38:02.565Z,79.98
2024-03-16T06:40:30.744Z,79.31
2024-03-16T06:42:58.545Z,79.58
2024-03-16T06:45:26.288Z,79.13
2024-03-16T06:47:54.522Z,78.90
2024-03-16T06:50:23.030Z,78.77
2024-03-16T06:52:50.842Z,79.31
2024-03-16T06:55:19.475Z,78.50
2024-03-16T06:57:47.587Z,77.86
2024-03-16T07:00:15.895Z,77.59
2024-03-16T07:02:43.719Z,77.58
2024-03-16T07:05:12.303Z,77.59
2024-03-16T07:07:41.121Z,77.09
2024-03-16T07:10:09.434Z,77.38
2024-03-16T07:12:37.404Z,76.83
2024-03-16T07:15:07.044Z,76.45
2024-03-16T07:17:34.867Z,76.30
2024-03-16T07:20:03.573Z,75.50
2024-03-16T07:22:31.295Z,75.00
2024-03-16T07:24:59.014Z,74.76
2024-03-16T07:27:27.033Z,75.32
2024-03-16T07:29:54.800Z,75.48
2024-03-16T07:32:23.601Z,75.90
2024-03-16T07:34:51.417Z,76.51
2024-03-16T07:37:19.288Z,76.91
2024-03-16T07:39:47.121Z,77.47
2024-03-16T07:42:15.040Z,77.97
2024-03-16T07:44:42.872Z,71.96
2024-03-16T07:47:10.608Z,67.76
2024-03-16T07:49:38.343Z,65.75
2024-03-16T07:52:06.759Z,64.73
2024-03-16T07:54:34.598Z,63.17
2024-03-16T07:57:02.782Z,62.86
2024-03-16T07:59:30.511Z,62.31
2024-03-16T08:01:58.285Z,61.40
2024-03-16T08:04:26.175Z,61.22
2024-03-16T08:06:53.973Z,61.19
2024-03-16T08:09:24.093Z,61.15
2024-03-16T08:11:52.638Z,63.35
2024-03-16T08:14:21.604Z,66.98
2024-03-16T08:16:49.405Z,69.10
2024-03-16T08:19:18.086Z,70.67
2024-03-16T08:21:46.330Z,74.06
2024-03-16T08:24:14.234Z,74.35
2024-03-16T08:26:42.126Z,74.27
2024-03-16T08:29:10.069Z,74.40
2024-03-16T08:31:37.958Z,74.66
2024-03-16T08:34:06.207Z,74.32
2024-03-16T08:36:34.118Z,74.07
2024-03-16T08:39:04.456Z,73.88
2024-03-16T08:41:32.295Z,73.38
2024-03-16T08:44:00.128Z,73.24
2024-03-16T08:46:28.340Z,73.17
2024-03-16T08:48:56.461Z,73.20
2024-03-16T08:51:25.547Z,72.94
2024-03-16T08:53:53.344Z,73.35
2024-03-16T08:56:21.241Z,73.02
2024-03-16T08:58:50.501Z,68.07
2024-03-16T09:01:18.831Z,64.46
2024-03-16T09:03:46.790Z,62.31
2024-03-16T09:06:15.487Z,60.60
2024-03-16T09:08:43.341Z,59.30
2024-03-16T09:11:12.530Z,58.58
2024-03-16T09:13:40.347Z,57.43
2024-03-16T09:16:08.334Z,58.46
2024-03-16T09:18:36.396Z,58.65
2024-03-16T09:21:04.642Z,58.74
2024-03-16T09:23:32.544Z,58.47
2024-03-16T09:26:02.251Z,58.46
2024-03-16T09:28:30.084Z,58.39
2024-03-16T09:30:57.911Z,57.64
2024-03-16T09:33:26.360Z,56.89
2024-03-16T09:35:54.627Z,57.94
2024-03-16T09:38:24.176Z,57.58
2024-03-16T09:40:56.482Z,56.88
